Time;durP1;ratioP1;P1;durP2;ratioP2;P2;SDS_P1;SDS_P2;PMS_P1;PMS_P2;Temp;Humidity;BMP_temperature;BMP_pressure;BME280_temperature;BME280_humidity;BME280_pressure;Samples;Min_cycle;Max_cycle;Signal;HPM_P1;HPM_P2
2023/08/23 00:00:45;;;;;;;25.90;24.20;;;;;;;;;;5098861;28;21048;-82
2023/08/23 00:03:12;;;;;;;25.47;23.77;;;;;;;;;;5100123;28;20561;-83
2023/08/23 00:05:39;;;;;;;25.00;23.60;;;;;;;;;;5099727;28;20460;-83
2023/08/23 00:08:08;;;;;;;25.33;23.83;;;;;;;;;;5099700;28;20484;-84
2023/08/23 00:10:35;;;;;;;26.67;24.97;;;;;;;;;;5099581;28;20411;-83
2023/08/23 00:13:02;;;;;;;27.20;25.40;;;;;;;;;;5098005;28;20443;-83
2023/08/23 00:15:29;;;;;;;28.20;26.50;;;;;;;;;;5086307;28;20453;-84
2023/08/23 00:17:56;;;;;;;29.27;27.53;;;;;;;;;;5099712;28;20456;-85
2023/08/23 00:20:23;;;;;;;27.90;25.97;;;;;;;;;;5098916;28;20448;-84
2023/08/23 00:22:50;;;;;;;28.67;26.57;;;;;;;;;;5098828;28;20476;-83
2023/08/23 00:25:18;;;;;;;26.43;24.87;;;;;;;;;;5099218;28;20488;-83
2023/08/23 00:27:46;;;;;;;27.70;25.80;;;;;;;;;;5099922;28;20453;-83
2023/08/23 00:30:13;;;;;;;26.70;25.00;;;;;;;;;;5099081;28;20423;-84
2023/08/23 00:32:40;;;;;;;26.60;24.80;;;;;;;;;;5100077;28;20477;-84
2023/08/23 00:35:07;;;;;;;27.20;25.13;;;;;;;;;;5099213;28;20696;-83
2023/08/23 00:37:34;;;;;;;28.57;26.53;;;;;;;;;;5099367;28;20424;-83
2023/08/23 00:40:02;;;;;;;27.50;25.80;;;;;;;;;;5098543;28;20426;-84
2023/08/23 00:42:31;;;;;;;26.60;24.77;;;;;;;;;;5099518;28;20455;-83
2023/08/23 00:44:58;;;;;;;27.50;25.70;;;;;;;;;;5099497;28;20464;-83
2023/08/23 00:47:25;;;;;;;26.30;24.60;;;;;;;;;;5099687;28;20426;-83
2023/08/23 00:49:52;;;;;;;26.47;24.77;;;;;;;;;;5098663;28;20418;-84
2023/08/23 00:52:19;;;;;;;28.73;26.73;;;;;;;;;;5099641;28;20875;-83
2023/08/23 00:54:47;;;;;;;27.40;25.80;;;;;;;;;;5099787;28;20415;-84
2023/08/23 00:57:14;;;;;;;26.17;24.57;;;;;;;;;;5099269;28;20440;-83
2023/08/23 00:59:43;;;;;;;26.97;25.17;;;;;;;;;;5098675;28;20452;-83
2023/08/23 01:02:10;;;;;;;27.50;25.60;;;;;;;;;;5099581;28;20427;-85
2023/08/23 01:04:37;;;;;;;28.87;26.83;;;;;;;;;;5098824;28;20467;-83
2023/08/23 01:07:07;;;;;;;29.57;27.60;;;;;;;;;;5098290;28;20852;-84
2023/08/23 01:09:37;;;;;;;28.43;26.50;;;;;;;;;;5099413;28;20457;-83
2023/08/23 01:12:07;;;;;;;27.43;25.73;;;;;;;;;;5098712;28;20468;-84
2023/08/23 01:14:40;;;;;;;28.10;26.03;;;;;;;;;;5102710;28;20444;-82
2023/08/23 01:17:09;;;;;;;30.40;28.40;;;;;;;;;;5103653;28;20433;-83
2023/08/23 01:19:43;;;;;;;29.73;27.50;;;;;;;;;;5103643;28;20445;-85
2023/08/23 01:22:11;;;;;;;29.50;27.60;;;;;;;;;;5103208;28;20460;-84
2023/08/23 01:24:41;;;;;;;28.27;26.33;;;;;;;;;;5103075;28;20462;-82
2023/08/23 01:27:08;;;;;;;27.73;26.03;;;;;;;;;;5102458;28;20468;-82
2023/08/23 01:29:35;;;;;;;28.27;26.50;;;;;;;;;;5102745;28;20507;-85
2023/08/23 01:32:08;;;;;;;28.73;26.53;;;;;;;;;;5102809;28;20464;-83
2023/08/23 01:34:37;;;;;;;28.20;26.27;;;;;;;;;;5102833;28;20542;-83
2023/08/23 01:37:05;;;;;;;27.83;25.93;;;;;;;;;;5102685;28;20415;-82
2023/08/23 01:39:33;;;;;;;29.20;27.00;;;;;;;;;;5102680;28;20522;-84
2023/08/23 01:42:02;;;;;;;30.23;28.03;;;;;;;;;;5102161;28;20447;-83
2023/08/23 01:44:29;;;;;;;29.50;27.10;;;;;;;;;;5102165;28;21031;-84
2023/08/23 01:46:56;;;;;;;30.13;27.80;;;;;;;;;;5102672;28;20444;-82
2023/08/23 01:49:23;;;;;;;28.10;26.30;;;;;;;;;;5102654;28;21122;-85
2023/08/23 01:51:50;;;;;;;29.13;27.00;;;;;;;;;;5101896;28;20451;-83
2023/08/23 01:54:18;;;;;;;29.70;27.73;;;;;;;;;;5102500;28;20445;-83
2023/08/23 01:56:45;;;;;;;28.20;26.40;;;;;;;;;;5102371;28;20403;-83
2023/08/23 01:59:13;;;;;;;30.23;28.07;;;;;;;;;;5098251;28;20444;-83
2023/08/23 02:01:40;;;;;;;29.30;27.40;;;;;;;;;;5096695;28;20461;-83
2023/08/23 02:04:07;;;;;;;28.73;27.03;;;;;;;;;;5098505;28;20479;-84
2023/08/23 02:06:34;;;;;;;30.67;27.97;;;;;;;;;;5100299;28;20413;-84
2023/08/23 02:09:01;;;;;;;29.50;27.67;;;;;;;;;;5100223;28;20456;-83
2023/08/23 02:11:28;;;;;;;29.87;27.30;;;;;;;;;;5100245;28;20422;-83
2023/08/23 02:13:55;;;;;;;29.50;27.60;;;;;;;;;;5099390;28;20435;-84
2023/08/23 02:16:24;;;;;;;29.43;27.60;;;;;;;;;;5095229;28;20430;-83
2023/08/23 02:18:51;;;;;;;29.87;27.93;;;;;;;;;;5080332;28;20427;-83
2023/08/23 02:21:18;;;;;;;29.60;27.60;;;;;;;;;;5079766;28;20689;-84
2023/08/23 02:23:45;;;;;;;30.30;28.10;;;;;;;;;;5080866;28;20488;-83
2023/08/23 02:26:12;;;;;;;30.27;28.27;;;;;;;;;;5080523;28;20427;-84
2023/08/23 02:28:39;;;;;;;31.27;28.97;;;;;;;;;;5080799;28;20429;-84
2023/08/23 02:31:06;;;;;;;31.40;29.20;;;;;;;;;;5080770;28;20835;-84
2023/08/23 02:33:35;;;;;;;32.37;30.17;;;;;;;;;;5081257;28;20448;-83
2023/08/23 02:36:02;;;;;;;31.60;29.40;;;;;;;;;;5081183;28;20417;-83
2023/08/23 02:38:29;;;;;;;31.47;29.27;;;;;;;;;;5081297;28;20417;-84
2023/08/23 02:40:56;;;;;;;30.60;28.40;;;;;;;;;;5081204;28;20424;-83
2023/08/23 02:43:23;;;;;;;31.10;28.90;;;;;;;;;;5081122;28;20479;-83
2023/08/23 02:45:50;;;;;;;33.07;30.50;;;;;;;;;;5080477;28;20486;-83
2023/08/23 02:48:17;;;;;;;34.93;32.17;;;;;;;;;;5081576;28;20913;-83
2023/08/23 02:50:46;;;;;;;37.87;34.80;;;;;;;;;;5080780;28;20424;-82
2023/08/23 02:53:13;;;;;;;33.43;30.73;;;;;;;;;;5080873;28;20444;-84
2023/08/23 02:55:40;;;;;;;32.37;30.00;;;;;;;;;;5080862;28;20446;-82
2023/08/23 02:58:07;;;;;;;32.70;30.10;;;;;;;;;;5081809;28;20456;-84
2023/08/23 03:00:35;;;;;;;31.90;29.57;;;;;;;;;;5079969;28;20457;-85
2023/08/23 03:03:02;;;;;;;31.67;29.57;;;;;;;;;;5081176;28;20464;-84
2023/08/23 03:05:29;;;;;;;33.87;31.40;;;;;;;;;;5080561;28;20484;-85
2023/08/23 03:07:57;;;;;;;34.47;31.97;;;;;;;;;;5080550;28;20416;-83
2023/08/23 03:10:24;;;;;;;35.47;32.87;;;;;;;;;;5080775;28;20458;-83
2023/08/23 03:12:51;;;;;;;35.87;33.17;;;;;;;;;;5080444;28;20992;-83
2023/08/23 03:15:19;;;;;;;33.73;31.37;;;;;;;;;;5080167;28;20427;-83
2023/08/23 03:17:46;;;;;;;34.10;31.70;;;;;;;;;;5080971;28;20449;-84
2023/08/23 03:20:13;;;;;;;33.43;31.03;;;;;;;;;;5080116;28;20499;-83
2023/08/23 03:22:41;;;;;;;34.27;31.47;;;;;;;;;;5080757;28;20432;-85
2023/08/23 03:25:09;;;;;;;36.80;34.17;;;;;;;;;;5081153;28;20486;-85
2023/08/23 03:27:36;;;;;;;37.90;35.10;;;;;;;;;;5080680;28;20427;-83
2023/08/23 03:30:04;;;;;;;38.47;35.43;;;;;;;;;;5079707;28;20980;-83
2023/08/23 03:32:31;;;;;;;41.97;38.77;;;;;;;;;;5081107;28;20496;-83
2023/08/23 03:34:58;;;;;;;39.07;35.97;;;;;;;;;;5079940;28;20420;-81
2023/08/23 03:37:26;;;;;;;39.93;36.90;;;;;;;;;;5080216;28;20420;-83
2023/08/23 03:39:53;;;;;;;38.63;35.77;;;;;;;;;;5079653;28;21190;-83
2023/08/23 03:42:21;;;;;;;42.60;39.33;;;;;;;;;;5079534;28;20481;-84
2023/08/23 03:44:48;;;;;;;40.73;37.37;;;;;;;;;;5079956;28;20467;-84
2023/08/23 03:47:15;;;;;;;40.30;36.87;;;;;;;;;;5079519;28;20499;-83
2023/08/23 03:49:42;;;;;;;40.40;37.20;;;;;;;;;;5079744;28;20428;-84
2023/08/23 03:52:09;;;;;;;41.83;38.40;;;;;;;;;;5079666;28;20471;-82
2023/08/23 03:54:36;;;;;;;45.77;41.83;;;;;;;;;;5080324;28;20780;-84
2023/08/23 03:57:04;;;;;;;45.90;41.87;;;;;;;;;;5079244;28;20420;-83
2023/08/23 03:59:32;;;;;;;43.60;40.20;;;;;;;;;;5079523;28;20832;-84
2023/08/23 04:01:59;;;;;;;44.63;41.13;;;;;;;;;;5081230;28;20492;-86
2023/08/23 04:04:26;;;;;;;43.13;39.40;;;;;;;;;;5100622;28;20488;-83
2023/08/23 04:06:53;;;;;;;45.80;41.90;;;;;;;;;;5091931;28;20820;-83
2023/08/23 04:09:21;;;;;;;44.20;40.70;;;;;;;;;;5079910;28;20917;-82
2023/08/23 04:11:48;;;;;;;46.93;42.87;;;;;;;;;;5091548;28;20440;-84
2023/08/23 04:14:15;;;;;;;47.17;43.27;;;;;;;;;;5099866;28;20446;-83
2023/08/23 04:16:44;;;;;;;42.57;39.10;;;;;;;;;;5096345;28;20465;-85
2023/08/23 04:19:11;;;;;;;44.80;41.10;;;;;;;;;;5099202;28;20440;-84
2023/08/23 04:21:38;;;;;;;43.00;39.33;;;;;;;;;;5098839;28;20423;-84
2023/08/23 04:24:05;;;;;;;46.30;42.50;;;;;;;;;;5078779;28;20964;-84
2023/08/23 04:26:32;;;;;;;44.73;40.97;;;;;;;;;;5078976;28;20464;-82
2023/08/23 04:28:59;;;;;;;45.00;41.27;;;;;;;;;;5078808;28;20462;-84
2023/08/23 04:31:26;;;;;;;42.57;38.90;;;;;;;;;;5079587;28;20453;-86
2023/08/23 04:33:55;;;;;;;44.90;41.23;;;;;;;;;;5079652;28;20531;-85
2023/08/23 04:36:22;;;;;;;41.37;38.00;;;;;;;;;;5080420;28;20445;-85
2023/08/23 04:38:49;;;;;;;42.83;39.37;;;;;;;;;;5079322;28;20439;-84
2023/08/23 04:41:16;;;;;;;48.57;44.37;;;;;;;;;;5078595;28;20916;-85
2023/08/23 04:43:43;;;;;;;48.70;44.70;;;;;;;;;;5079848;28;20432;-85
2023/08/23 04:46:10;;;;;;;45.37;41.47;;;;;;;;;;5078919;28;20512;-86
2023/08/23 04:48:37;;;;;;;45.20;41.30;;;;;;;;;;5079495;28;20442;-85
2023/08/23 04:51:08;;;;;;;44.03;40.57;;;;;;;;;;5093075;28;20430;-86
2023/08/23 04:53:35;;;;;;;45.93;41.93;;;;;;;;;;5099562;28;20467;-83
2023/08/23 04:56:02;;;;;;;49.90;45.40;;;;;;;;;;5099809;28;20441;-84
2023/08/23 04:58:31;;;;;;;50.87;46.33;;;;;;;;;;5099128;28;20423;-84
2023/08/23 05:01:01;;;;;;;49.40;45.10;;;;;;;;;;5096474;28;20427;-84
2023/08/23 05:03:29;;;;;;;47.40;43.53;;;;;;;;;;5098806;27;20491;-86
2023/08/23 05:05:56;;;;;;;47.60;43.37;;;;;;;;;;5099283;28;20447;-85
2023/08/23 05:08:24;;;;;;;45.83;42.10;;;;;;;;;;5089720;28;20445;-85
2023/08/23 05:10:55;;;;;;;46.17;42.27;;;;;;;;;;5099011;28;20430;-86
2023/08/23 05:13:22;;;;;;;46.77;42.77;;;;;;;;;;5099364;28;20465;-84
2023/08/23 05:15:52;;;;;;;53.07;48.27;;;;;;;;;;5098937;28;20419;-87
2023/08/23 05:18:19;;;;;;;48.87;44.60;;;;;;;;;;5099408;28;20460;-84
2023/08/23 05:20:46;;;;;;;49.97;45.57;;;;;;;;;;5098443;28;20420;-86
2023/08/23 05:23:14;;;;;;;51.50;47.10;;;;;;;;;;5098542;28;20453;-84
2023/08/23 05:25:42;;;;;;;49.20;45.10;;;;;;;;;;5098710;28;20952;-86
2023/08/23 05:28:09;;;;;;;51.77;46.87;;;;;;;;;;5099569;28;20521;-86
2023/08/23 05:30:39;;;;;;;50.50;46.17;;;;;;;;;;5098957;28;20449;-86
2023/08/23 05:33:07;;;;;;;51.60;47.10;;;;;;;;;;5098834;28;20487;-84
2023/08/23 05:35:34;;;;;;;48.90;44.87;;;;;;;;;;5099149;28;20477;-84
2023/08/23 05:38:01;;;;;;;51.03;46.63;;;;;;;;;;5090891;28;20431;-86
2023/08/23 05:40:29;;;;;;;53.03;48.43;;;;;;;;;;5077343;28;20442;-85
2023/08/23 05:42:57;;;;;;;53.63;49.13;;;;;;;;;;5079375;28;20469;-85
2023/08/23 05:45:26;;;;;;;53.40;48.80;;;;;;;;;;5079224;28;20477;-84
2023/08/23 05:47:54;;;;;;;57.80;52.70;;;;;;;;;;5079235;28;20774;-85
2023/08/23 05:50:21;;;;;;;56.00;51.17;;;;;;;;;;5078411;28;20453;-83
2023/08/23 05:52:48;;;;;;;57.47;52.20;;;;;;;;;;5078297;28;20469;-86
2023/08/23 05:55:15;;;;;;;52.30;48.00;;;;;;;;;;5087405;28;20450;-87
2023/08/23 05:57:42;;;;;;;53.67;49.17;;;;;;;;;;5118180;28;20423;-84
2023/08/23 06:00:13;;;;;;;54.53;49.83;;;;;;;;;;5120259;28;20455;-82
2023/08/23 06:02:40;;;;;;;54.33;49.90;;;;;;;;;;5118680;28;20463;-84
2023/08/23 06:05:10;;;;;;;51.13;46.83;;;;;;;;;;5121182;28;20570;-84
2023/08/23 06:07:37;;;;;;;54.23;49.33;;;;;;;;;;5121184;28;20450;-84
2023/08/23 06:10:04;;;;;;;53.20;48.80;;;;;;;;;;5120962;28;20777;-84
2023/08/23 06:12:31;;;;;;;52.23;47.80;;;;;;;;;;5099550;27;20484;-84
2023/08/23 06:14:59;;;;;;;52.73;48.37;;;;;;;;;;5100607;28;20445;-85
2023/08/23 06:17:28;;;;;;;50.50;46.10;;;;;;;;;;5100209;28;20438;-85
2023/08/23 06:19:55;;;;;;;51.03;46.73;;;;;;;;;;5104884;28;20445;-85
2023/08/23 06:22:22;;;;;;;52.03;47.60;;;;;;;;;;5098023;28;20461;-85
2023/08/23 06:24:49;;;;;;;49.73;45.53;;;;;;;;;;5093313;28;20631;-85
2023/08/23 06:27:16;;;;;;;50.70;46.50;;;;;;;;;;5105271;28;20414;-83
2023/08/23 06:29:43;;;;;;;48.67;44.67;;;;;;;;;;5105086;28;20412;-85
2023/08/23 06:32:10;;;;;;;48.60;44.67;;;;;;;;;;5103175;28;20939;-85
2023/08/23 06:34:39;;;;;;;47.20;43.27;;;;;;;;;;5104622;28;20935;-85
2023/08/23 06:37:07;;;;;;;44.33;40.70;;;;;;;;;;5104974;28;20404;-85
2023/08/23 06:39:34;;;;;;;46.23;42.33;;;;;;;;;;5102669;28;20515;-86
2023/08/23 06:42:01;;;;;;;45.87;42.27;;;;;;;;;;5083881;28;20462;-86
2023/08/23 06:44:31;;;;;;;43.77;40.07;;;;;;;;;;5083034;28;21151;-86
2023/08/23 06:46:58;;;;;;;45.07;41.33;;;;;;;;;;5084729;28;20878;-87
2023/08/23 06:49:25;;;;;;;42.47;39.13;;;;;;;;;;5083439;28;20957;-87
2023/08/23 06:51:53;;;;;;;44.10;40.70;;;;;;;;;;5092137;28;20457;-87
2023/08/23 06:54:20;;;;;;;45.73;42.03;;;;;;;;;;5099626;28;20449;-86
2023/08/23 06:56:47;;;;;;;43.30;39.77;;;;;;;;;;5084739;28;20496;-85
2023/08/23 06:59:15;;;;;;;43.23;39.53;;;;;;;;;;5083978;28;20456;-85
2023/08/23 07:01:42;;;;;;;47.43;42.87;;;;;;;;;;5084300;28;20461;-85
2023/08/23 07:04:09;;;;;;;46.53;42.40;;;;;;;;;;5085199;28;20412;-86
2023/08/23 07:06:36;;;;;;;46.57;42.37;;;;;;;;;;5084937;28;20460;-86
2023/08/23 07:09:04;;;;;;;48.07;43.57;;;;;;;;;;5085756;28;20424;-86
2023/08/23 07:11:31;;;;;;;45.23;41.00;;;;;;;;;;5084390;28;20480;-87
2023/08/23 07:13:58;;;;;;;47.00;42.90;;;;;;;;;;5092688;28;20460;-86
2023/08/23 07:16:26;;;;;;;45.40;41.60;;;;;;;;;;5092221;28;20488;-87
2023/08/23 07:18:53;;;;;;;44.60;40.33;;;;;;;;;;5104151;28;20428;-84
2023/08/23 07:21:20;;;;;;;42.80;38.80;;;;;;;;;;5103499;28;20433;-85
2023/08/23 07:23:47;;;;;;;41.53;37.93;;;;;;;;;;5104093;28;20465;-85
2023/08/23 07:26:15;;;;;;;42.33;38.77;;;;;;;;;;5096672;28;20531;-86
2023/08/23 07:28:42;;;;;;;42.07;38.57;;;;;;;;;;5094421;28;20461;-86
2023/08/23 07:31:09;;;;;;;40.97;37.37;;;;;;;;;;5089142;28;20431;-86
2023/08/23 07:33:36;;;;;;;41.83;38.27;;;;;;;;;;5090025;28;20508;-86
2023/08/23 07:36:03;;;;;;;42.10;38.33;;;;;;;;;;5090297;28;20446;-86
2023/08/23 07:38:32;;;;;;;40.77;37.30;;;;;;;;;;5089103;28;20464;-87
2023/08/23 07:40:59;;;;;;;39.87;36.57;;;;;;;;;;5089366;28;20428;-85
2023/08/23 07:43:28;;;;;;;39.07;35.67;;;;;;;;;;5090441;28;20475;-87
2023/08/23 07:45:55;;;;;;;39.10;36.10;;;;;;;;;;5090419;28;20466;-86
2023/08/23 07:48:23;;;;;;;41.00;37.77;;;;;;;;;;5090861;28;20431;-86
2023/08/23 07:50:50;;;;;;;38.93;35.70;;;;;;;;;;5081213;28;20915;-87
2023/08/23 07:53:18;;;;;;;40.80;37.50;;;;;;;;;;5098036;28;20469;-85
2023/08/23 07:55:45;;;;;;;40.10;36.90;;;;;;;;;;5100806;28;20424;-87
2023/08/23 07:58:12;;;;;;;41.10;37.00;;;;;;;;;;5097330;28;20476;-82
2023/08/23 08:00:41;;;;;;;39.80;36.20;;;;;;;;;;5095857;28;20468;-85
2023/08/23 08:03:08;;;;;;;40.07;36.40;;;;;;;;;;5096632;28;20469;-89
2023/08/23 08:05:35;;;;;;;39.10;35.87;;;;;;;;;;5096358;28;20829;-90
2023/08/23 08:08:03;;;;;;;38.70;35.10;;;;;;;;;;5095895;28;20437;-91
2023/08/23 08:10:30;;;;;;;38.40;34.90;;;;;;;;;;5090275;27;20459;-91
2023/08/23 08:12:58;;;;;;;37.97;34.37;;;;;;;;;;5087450;28;20814;-91
2023/08/23 08:15:26;;;;;;;43.27;39.27;;;;;;;;;;5096224;28;20469;-91
2023/08/23 08:17:54;;;;;;;39.83;36.20;;;;;;;;;;5096063;28;20471;-91
2023/08/23 08:20:23;;;;;;;38.77;35.50;;;;;;;;;;5095691;28;20433;-91
2023/08/23 08:22:50;;;;;;;38.63;35.30;;;;;;;;;;5095747;28;20461;-90
2023/08/23 08:25:17;;;;;;;40.30;36.30;;;;;;;;;;5095864;28;21011;-91
2023/08/23 08:27:45;;;;;;;38.23;35.03;;;;;;;;;;5094761;28;20472;-90
2023/08/23 08:30:12;;;;;;;39.17;35.67;;;;;;;;;;5095928;28;20490;-91
2023/08/23 08:32:39;;;;;;;37.53;34.17;;;;;;;;;;5095483;28;20480;-91
2023/08/23 08:35:08;;;;;;;36.83;33.47;;;;;;;;;;5096505;28;20449;-90
2023/08/23 08:37:36;;;;;;;37.50;34.47;;;;;;;;;;5096261;28;20526;-91
2023/08/23 08:40:03;;;;;;;36.20;33.07;;;;;;;;;;5095912;28;20457;-91
2023/08/23 08:42:30;;;;;;;37.50;34.13;;;;;;;;;;5096119;28;20484;-92
2023/08/23 08:44:57;;;;;;;37.00;33.60;;;;;;;;;;5096135;28;20439;-90
2023/08/23 08:47:25;;;;;;;37.60;33.93;;;;;;;;;;5095652;28;20462;-90
2023/08/23 08:49:52;;;;;;;37.27;34.13;;;;;;;;;;5094734;28;20464;-90
2023/08/23 08:52:21;;;;;;;36.43;33.43;;;;;;;;;;5095184;28;21229;-91
2023/08/23 08:54:50;;;;;;;38.20;34.47;;;;;;;;;;5095371;28;20810;-91
2023/08/23 08:57:18;;;;;;;34.20;31.17;;;;;;;;;;5095512;28;20456;-91
2023/08/23 08:59:45;;;;;;;34.80;31.73;;;;;;;;;;5094727;28;20445;-92
2023/08/23 09:02:13;;;;;;;34.77;31.80;;;;;;;;;;5094695;28;20449;-91
2023/08/23 09:04:40;;;;;;;34.13;31.33;;;;;;;;;;5094852;28;20579;-91
2023/08/23 09:07:07;;;;;;;34.70;31.63;;;;;;;;;;5094782;28;20480;-90
2023/08/23 09:09:36;;;;;;;34.30;31.30;;;;;;;;;;5094224;28;20412;-91
2023/08/23 09:12:03;;;;;;;32.47;29.83;;;;;;;;;;5094263;28;20473;-91
2023/08/23 09:14:32;;;;;;;36.70;33.20;;;;;;;;;;5094588;28;20418;-91
2023/08/23 09:16:59;;;;;;;34.37;31.47;;;;;;;;;;5094457;28;20453;-90
2023/08/23 09:19:26;;;;;;;32.17;29.17;;;;;;;;;;5084487;28;20931;-91
2023/08/23 09:21:53;;;;;;;30.90;28.33;;;;;;;;;;5092219;28;20548;-80
2023/08/23 09:24:20;;;;;;;31.90;29.20;;;;;;;;;;5084271;28;20838;-79
2023/08/23 09:26:49;;;;;;;29.80;27.50;;;;;;;;;;5075992;28;20579;-80
2023/08/23 09:29:16;;;;;;;28.27;26.07;;;;;;;;;;5074983;28;20535;-89
2023/08/23 09:31:43;;;;;;;28.90;26.50;;;;;;;;;;5073356;28;20821;-89
2023/08/23 09:34:13;;;;;;;28.23;26.13;;;;;;;;;;5085829;27;20473;-89
2023/08/23 09:36:41;;;;;;;27.83;25.80;;;;;;;;;;5098332;28;20487;-90
2023/08/23 09:39:09;;;;;;;28.70;26.07;;;;;;;;;;5098114;28;20437;-86
2023/08/23 09:41:37;;;;;;;30.03;27.60;;;;;;;;;;5097482;28;20523;-90
2023/08/23 09:44:06;;;;;;;28.20;26.10;;;;;;;;;;5097564;28;20456;-90
2023/08/23 09:46:35;;;;;;;31.10;28.53;;;;;;;;;;5090056;28;20484;-82
2023/08/23 09:49:04;;;;;;;28.97;26.10;;;;;;;;;;5094877;28;20548;-89
2023/08/23 09:51:31;;;;;;;27.53;25.33;;;;;;;;;;5097661;28;20451;-89
2023/08/23 09:53:59;;;;;;;28.30;25.73;;;;;;;;;;5097267;28;20480;-90
2023/08/23 09:56:27;;;;;;;29.53;27.50;;;;;;;;;;5097459;28;20440;-89
2023/08/23 09:58:54;;;;;;;28.20;26.10;;;;;;;;;;5076715;28;20453;-90
2023/08/23 10:01:25;;;;;;;28.87;26.60;;;;;;;;;;5090778;28;20455;-89
2023/08/23 10:04:24;;;;;;;27.47;25.47;;;;;;;;;;5097157;28;20547;-89
2023/08/23 10:09:55;;;;;;;28.47;26.20;;;;;;;;;;5096237;28;20408;-89
2023/08/23 10:12:22;;;;;;;28.63;26.63;;;;;;;;;;5098396;28;20488;-90
2023/08/23 10:14:50;;;;;;;27.60;25.57;;;;;;;;;;5099434;28;20504;-89
2023/08/23 10:17:21;;;;;;;29.73;26.90;;;;;;;;;;5099300;28;20441;-89
2023/08/23 10:19:49;;;;;;;29.60;27.63;;;;;;;;;;5098633;28;20428;-89
2023/08/23 10:22:18;;;;;;;30.37;28.03;;;;;;;;;;5098632;28;20472;-89
2023/08/23 10:24:47;;;;;;;28.33;26.10;;;;;;;;;;5099407;28;20418;-89
2023/08/23 10:27:14;;;;;;;28.53;26.20;;;;;;;;;;5098323;28;20477;-89
2023/08/23 10:29:41;;;;;;;29.47;27.37;;;;;;;;;;5097850;28;20980;-90
2023/08/23 10:32:09;;;;;;;30.40;27.77;;;;;;;;;;5113714;28;21314;-90
2023/08/23 10:34:38;;;;;;;28.53;26.63;;;;;;;;;;5119229;28;20411;-89
2023/08/23 10:37:15;;;;;;;31.60;29.23;;;;;;;;;;5118027;28;20413;-91
2023/08/23 10:39:49;;;;;;;29.50;27.40;;;;;;;;;;5118343;28;20436;-90
2023/08/23 10:42:17;;;;;;;28.07;26.20;;;;;;;;;;5118564;28;20456;-90
2023/08/23 10:44:47;;;;;;;30.57;28.37;;;;;;;;;;5117904;28;20470;-90
2023/08/23 10:47:16;;;;;;;28.30;26.40;;;;;;;;;;5111942;28;20487;-89
2023/08/23 10:49:44;;;;;;;28.90;27.00;;;;;;;;;;5097409;28;21125;-90
2023/08/23 10:52:11;;;;;;;28.43;26.53;;;;;;;;;;5096627;28;20459;-89
2023/08/23 10:54:39;;;;;;;28.93;26.83;;;;;;;;;;5097839;28;20779;-89
2023/08/23 10:57:18;;;;;;;29.23;27.10;;;;;;;;;;5096867;28;20443;-90
2023/08/23 10:59:45;;;;;;;26.87;25.13;;;;;;;;;;5097272;28;20897;-90
2023/08/23 11:02:13;;;;;;;29.33;27.40;;;;;;;;;;5096808;28;20455;-90
2023/08/23 11:04:40;;;;;;;27.80;25.87;;;;;;;;;;5097050;28;20410;-89
2023/08/23 11:07:09;;;;;;;29.00;26.90;;;;;;;;;;5098862;28;20477;-90
2023/08/23 11:09:36;;;;;;;27.97;26.10;;;;;;;;;;5118182;28;20443;-83
2023/08/23 11:12:04;;;;;;;27.50;25.70;;;;;;;;;;5116678;28;20795;-84
2023/08/23 11:14:31;;;;;;;26.10;24.30;;;;;;;;;;5093780;28;20883;-85
2023/08/23 11:16:58;;;;;;;28.30;26.30;;;;;;;;;;5103029;28;20445;-84
2023/08/23 11:19:25;;;;;;;26.70;24.80;;;;;;;;;;5096568;28;20440;-79
2023/08/23 11:21:53;;;;;;;27.30;25.43;;;;;;;;;;5093719;28;20444;-78
2023/08/23 11:24:21;;;;;;;25.97;24.37;;;;;;;;;;5093698;28;20446;-78
2023/08/23 11:26:48;;;;;;;25.20;23.60;;;;;;;;;;5092755;28;20988;-79
2023/08/23 11:29:15;;;;;;;25.80;24.10;;;;;;;;;;5084982;28;20463;-84
2023/08/23 11:31:42;;;;;;;25.97;23.90;;;;;;;;;;5096376;28;20441;-82
2023/08/23 11:34:11;;;;;;;27.47;25.20;;;;;;;;;;5092714;28;20461;-83
2023/08/23 11:36:38;;;;;;;27.77;25.37;;;;;;;;;;5077218;28;20457;-83
2023/08/23 11:39:06;;;;;;;26.40;24.60;;;;;;;;;;5076848;28;20473;-81
2023/08/23 11:41:35;;;;;;;26.20;24.30;;;;;;;;;;5076487;28;20819;-81
2023/08/23 11:44:05;;;;;;;26.50;24.70;;;;;;;;;;5076193;28;20476;-83
2023/08/23 11:46:34;;;;;;;25.97;24.17;;;;;;;;;;5076974;28;20956;-81
2023/08/23 11:49:02;;;;;;;27.30;25.60;;;;;;;;;;5076618;28;20447;-81
2023/08/23 11:51:37;;;;;;;27.97;26.00;;;;;;;;;;5076098;28;21190;-80
2023/08/23 11:54:05;;;;;;;26.43;24.63;;;;;;;;;;5076783;28;20445;-82
2023/08/23 11:56:35;;;;;;;25.30;23.80;;;;;;;;;;5074212;28;20442;-83
2023/08/23 11:59:02;;;;;;;27.07;25.37;;;;;;;;;;5077002;28;20434;-81
2023/08/23 12:01:29;;;;;;;26.73;25.10;;;;;;;;;;5075427;28;20473;-83
2023/08/23 12:03:56;;;;;;;26.50;24.60;;;;;;;;;;5076447;28;20469;-82
2023/08/23 12:06:23;;;;;;;25.57;23.97;;;;;;;;;;5076677;28;20450;-82
2023/08/23 12:08:50;;;;;;;25.30;23.73;;;;;;;;;;5076741;28;20496;-81
2023/08/23 12:11:17;;;;;;;25.53;23.90;;;;;;;;;;5076040;28;20442;-81
2023/08/23 12:13:46;;;;;;;25.20;23.30;;;;;;;;;;5076116;28;20490;-81
2023/08/23 12:16:13;;;;;;;25.47;23.67;;;;;;;;;;5076043;28;20828;-81
2023/08/23 12:18:41;;;;;;;25.23;23.43;;;;;;;;;;5076185;28;20445;-82
2023/08/23 12:21:08;;;;;;;25.50;23.83;;;;;;;;;;5075443;28;20450;-82
2023/08/23 12:23:35;;;;;;;25.90;24.10;;;;;;;;;;5075101;28;20891;-84
2023/08/23 12:26:02;;;;;;;24.97;23.40;;;;;;;;;;5076319;28;20437;-82
2023/08/23 12:28:29;;;;;;;25.60;23.80;;;;;;;;;;5075942;28;20496;-81
2023/08/23 12:30:58;;;;;;;25.27;23.37;;;;;;;;;;5075436;28;20553;-81
2023/08/23 12:33:25;;;;;;;25.60;23.80;;;;;;;;;;5075742;28;20473;-83
2023/08/23 12:35:52;;;;;;;24.80;23.10;;;;;;;;;;5076017;28;20507;-81
2023/08/23 12:38:19;;;;;;;25.67;23.97;;;;;;;;;;5075499;28;20838;-82
2023/08/23 12:40:46;;;;;;;25.27;23.57;;;;;;;;;;5074622;28;20442;-81
2023/08/23 12:43:13;;;;;;;26.20;24.40;;;;;;;;;;5075916;28;20465;-83
2023/08/23 12:45:40;;;;;;;25.87;24.17;;;;;;;;;;5088829;28;20458;-82
2023/08/23 12:48:10;;;;;;;25.17;23.50;;;;;;;;;;5082817;28;20455;-83
2023/08/23 12:50:37;;;;;;;23.90;22.50;;;;;;;;;;5095665;28;20449;-82
2023/08/23 12:53:04;;;;;;;24.27;22.57;;;;;;;;;;5094615;28;20488;-81
2023/08/23 12:55:32;;;;;;;24.23;22.60;;;;;;;;;;5095598;28;20768;-82
2023/08/23 12:57:59;;;;;;;23.87;22.33;;;;;;;;;;5095944;28;20831;-82
2023/08/23 13:00:26;;;;;;;23.30;21.90;;;;;;;;;;5095490;28;20468;-82
2023/08/23 13:02:53;;;;;;;24.37;22.97;;;;;;;;;;5095507;28;21052;-82
2023/08/23 13:05:21;;;;;;;24.73;23.10;;;;;;;;;;5096517;28;20437;-82
2023/08/23 13:07:48;;;;;;;24.87;23.20;;;;;;;;;;5097330;28;20483;-82
2023/08/23 13:10:16;;;;;;;25.13;23.43;;;;;;;;;;5101690;28;20450;-82
2023/08/23 13:12:43;;;;;;;25.10;23.50;;;;;;;;;;5102583;28;20469;-81
2023/08/23 13:15:10;;;;;;;25.70;24.00;;;;;;;;;;5102327;28;20448;-82
2023/08/23 13:17:37;;;;;;;25.43;23.73;;;;;;;;;;5102926;28;20458;-83
2023/08/23 13:20:06;;;;;;;26.00;24.07;;;;;;;;;;5101926;28;20434;-83
2023/08/23 13:22:34;;;;;;;24.40;22.90;;;;;;;;;;5101592;28;21005;-81
2023/08/23 13:25:01;;;;;;;25.83;24.03;;;;;;;;;;5102196;28;20539;-82
2023/08/23 13:27:28;;;;;;;25.47;23.97;;;;;;;;;;5099012;28;20496;-82
2023/08/23 13:29:55;;;;;;;26.37;24.30;;;;;;;;;;5097088;28;20456;-83
2023/08/23 13:32:23;;;;;;;24.23;22.73;;;;;;;;;;5090289;28;20473;-82
2023/08/23 13:34:50;;;;;;;24.70;23.10;;;;;;;;;;5100911;28;20460;-82
2023/08/23 13:37:17;;;;;;;24.90;23.30;;;;;;;;;;5100953;28;20927;-83
2023/08/23 13:39:45;;;;;;;25.50;23.80;;;;;;;;;;5094316;28;20451;-86
2023/08/23 13:42:12;;;;;;;25.13;23.43;;;;;;;;;;5102376;28;20695;-82
2023/08/23 13:44:40;;;;;;;25.40;23.80;;;;;;;;;;5101483;28;20460;-82
2023/08/23 13:47:07;;;;;;;25.50;24.00;;;;;;;;;;5100727;28;20870;-81
2023/08/23 13:49:35;;;;;;;25.67;23.60;;;;;;;;;;5100869;28;20465;-82
2023/08/23 13:52:02;;;;;;;26.00;24.40;;;;;;;;;;5101295;28;20530;-82
2023/08/23 13:54:29;;;;;;;26.57;24.73;;;;;;;;;;5103458;28;20445;-81
2023/08/23 13:56:57;;;;;;;25.07;23.37;;;;;;;;;;5100361;28;20453;-82
2023/08/23 13:59:24;;;;;;;25.43;23.73;;;;;;;;;;5099427;28;20444;-82
2023/08/23 14:01:52;;;;;;;25.23;23.43;;;;;;;;;;5099158;28;20773;-81
2023/08/23 14:04:20;;;;;;;25.20;23.50;;;;;;;;;;5100363;28;20455;-82
2023/08/23 14:06:47;;;;;;;25.17;23.67;;;;;;;;;;5100336;28;20440;-82
2023/08/23 14:09:14;;;;;;;25.53;23.73;;;;;;;;;;5100836;28;20851;-82
2023/08/23 14:11:41;;;;;;;26.00;24.10;;;;;;;;;;5094750;28;20488;-83
2023/08/23 14:14:10;;;;;;;25.97;24.37;;;;;;;;;;5086314;28;20468;-82
2023/08/23 14:16:37;;;;;;;24.77;23.17;;;;;;;;;;5081283;28;20817;-81
2023/08/23 14:19:04;;;;;;;25.30;23.57;;;;;;;;;;5080505;28;20499;-83
2023/08/23 14:21:32;;;;;;;25.90;24.40;;;;;;;;;;5076032;28;20488;-82